createdAt,value
2019-05-09T00:01:43.872Z,93.70
2019-05-09T00:04:22.995Z,93.80
2019-05-09T00:06:59.937Z,93.90
2019-05-09T00:09:38.290Z,93.90
2019-05-09T00:12:16.060Z,93.90
2019-05-09T00:14:54.100Z,93.90
2019-05-09T00:17:33.749Z,94.00
2019-05-09T00:20:33.246Z,94.10
2019-05-09T00:23:13.566Z,94.10
2019-05-09T00:25:51.070Z,94.20
2019-05-09T00:28:32.987Z,94.00
2019-05-09T00:31:15.815Z,94.20
2019-05-09T00:33:57.757Z,94.20
2019-05-09T00:36:35.321Z,94.30
2019-05-09T00:39:13.533Z,94.30
2019-05-09T00:41:50.730Z,94.30
2019-05-09T00:44:30.043Z,94.30
2019-05-09T00:47:24.027Z,94.30
2019-05-09T00:50:02.518Z,94.30
2019-05-09T00:52:40.047Z,94.20
2019-05-09T00:55:17.292Z,94.30
2019-05-09T00:57:54.600Z,94.40
2019-05-09T01:00:33.344Z,94.40
2019-05-09T01:03:11.323Z,94.40
2019-05-09T01:05:48.671Z,94.50
2019-05-09T01:08:25.985Z,94.50
2019-05-09T01:11:11.767Z,94.40
2019-05-09T01:13:43.435Z,94.40
2019-05-09T01:16:20.847Z,94.40
2019-05-09T01:18:58.672Z,94.50
2019-05-09T01:21:36.114Z,94.50
2019-05-09T01:24:13.939Z,94.60
2019-05-09T01:26:51.550Z,94.50
2019-05-09T01:29:29.932Z,94.50
2019-05-09T01:32:14.517Z,94.60
2019-05-09T01:34:53.112Z,94.60
2019-05-09T01:37:30.599Z,94.70
2019-05-09T01:40:08.318Z,94.90
2019-05-09T01:42:45.697Z,94.90
2019-05-09T01:45:23.686Z,94.80
2019-05-09T01:48:03.288Z,94.90
2019-05-09T01:50:43.109Z,95.00
2019-05-09T01:53:25.103Z,95.10
2019-05-09T01:56:03.755Z,95.10
2019-05-09T01:58:43.084Z,95.20
2019-05-09T02:01:20.918Z,95.20
2019-05-09T02:03:58.714Z,95.20
2019-05-09T02:06:36.110Z,95.20
2019-05-09T02:09:14.170Z,95.30
2019-05-09T02:11:51.505Z,95.30
2019-05-09T02:14:34.833Z,95.30
2019-05-09T02:17:57.730Z,95.20
2019-05-09T02:20:24.406Z,95.50
2019-05-09T02:23:03.720Z,95.30
2019-05-09T02:25:41.259Z,95.30
2019-05-09T02:28:18.893Z,95.40
2019-05-09T02:30:56.098Z,95.50
2019-05-09T02:33:34.683Z,95.50
2019-05-09T02:36:12.371Z,95.70
2019-05-09T02:38:49.723Z,95.80
2019-05-09T02:41:28.630Z,95.80
2019-05-09T02:44:09.294Z,95.90
2019-05-09T02:47:09.255Z,96.10
2019-05-09T02:49:48.602Z,96.10
2019-05-09T02:52:28.469Z,96.20
2019-05-09T02:55:05.051Z,96.40
2019-05-09T02:57:48.932Z,96.40
2019-05-09T03:00:35.866Z,96.30
2019-05-09T03:03:20.066Z,96.40
2019-05-09T03:05:59.663Z,96.40
2019-05-09T03:08:38.452Z,96.50
2019-05-09T03:11:18.543Z,96.40
2019-05-09T03:13:54.766Z,96.50
2019-05-09T03:16:32.567Z,96.40
2019-05-09T03:19:11.740Z,96.70
2019-05-09T03:21:53.479Z,96.30
2019-05-09T03:24:30.692Z,96.50
2019-05-09T03:27:13.319Z,96.50
2019-05-09T03:29:54.472Z,96.30
2019-05-09T03:32:32.058Z,96.30
2019-05-09T03:35:09.498Z,96.30
2019-05-09T03:37:49.975Z,96.20
2019-05-09T03:40:28.303Z,96.60
2019-05-09T03:43:07.927Z,96.30
2019-05-09T03:45:51.697Z,96.40
2019-05-09T03:48:36.880Z,96.40
2019-05-09T03:51:13.937Z,96.30
2019-05-09T03:53:51.421Z,96.40
2019-05-09T03:56:33.711Z,96.40
2019-05-09T03:59:11.174Z,96.30
2019-05-09T04:01:50.343Z,96.30
2019-05-09T04:04:28.665Z,96.40
2019-05-09T04:07:08.407Z,96.30
2019-05-09T04:09:45.306Z,96.20
2019-05-09T04:12:23.163Z,96.20
2019-05-09T04:15:12.960Z,96.00
2019-05-09T04:17:50.140Z,96.10
2019-05-09T04:20:28.171Z,95.80
2019-05-09T04:23:07.827Z,95.80
2019-05-09T04:25:51.228Z,95.60
2019-05-09T04:28:28.873Z,95.60
2019-05-09T04:31:07.402Z,95.60
2019-05-09T04:33:44.895Z,95.70
2019-05-09T04:36:38.804Z,95.70
2019-05-09T04:39:21.692Z,95.70
2019-05-09T04:42:03.014Z,95.70
2019-05-09T04:44:42.579Z,95.60
2019-05-09T04:47:23.290Z,95.70
2019-05-09T04:50:00.822Z,96.70
2019-05-09T04:52:40.032Z,95.80
2019-05-09T04:55:18.602Z,95.80
2019-05-09T04:57:57.219Z,95.90
2019-05-09T05:00:54.438Z,95.80
2019-05-09T05:03:32.230Z,95.80
2019-05-09T05:06:22.282Z,95.60
2019-05-09T05:08:59.588Z,95.90
2019-05-09T05:11:38.324Z,95.80
2019-05-09T05:14:22.120Z,95.50
2019-05-09T05:17:07.603Z,95.50
2019-05-09T05:19:40.644Z,95.40
2019-05-09T05:22:23.884Z,95.10
2019-05-09T05:25:03.540Z,95.00
2019-05-09T05:27:40.967Z,95.20
2019-05-09T05:30:18.897Z,95.20
2019-05-09T05:33:00.213Z,95.40
2019-05-09T05:35:50.529Z,95.00
2019-05-09T05:38:28.194Z,95.20
2019-05-09T05:41:07.866Z,95.00
2019-05-09T05:43:47.753Z,94.80
2019-05-09T05:46:37.953Z,94.70
2019-05-09T05:49:18.492Z,94.60
2019-05-09T05:51:57.531Z,94.50
2019-05-09T05:54:34.695Z,94.00
2019-05-09T05:57:12.088Z,94.10
2019-05-09T05:59:49.981Z,94.30
2019-05-09T06:02:28.100Z,93.90
2019-05-09T06:05:08.295Z,94.00
2019-05-09T06:07:44.846Z,93.80
2019-05-09T06:10:22.470Z,94.10
2019-05-09T06:12:59.813Z,93.60
2019-05-09T06:15:38.047Z,93.60
2019-05-09T06:18:18.166Z,93.90
2019-05-09T06:20:58.154Z,94.00
2019-05-09T06:23:33.811Z,94.10
2019-05-09T06:26:11.226Z,94.10
2019-05-09T06:28:49.065Z,94.20
2019-05-09T06:31:38.608Z,93.60
2019-05-09T06:34:18.434Z,93.30
2019-05-09T06:36:58.212Z,93.60
2019-05-09T06:39:35.064Z,93.50
2019-05-09T06:42:12.835Z,93.50
2019-05-09T06:45:18.152Z,93.20
2019-05-09T06:47:58.285Z,92.90
2019-05-09T06:50:35.016Z,92.70
2019-05-09T06:53:12.512Z,92.50
2019-05-09T06:55:49.845Z,92.50
2019-05-09T06:58:34.421Z,92.70
2019-05-09T07:01:37.516Z,92.30
2019-05-09T07:04:23.812Z,91.80
2019-05-09T07:07:20.060Z,91.60
2019-05-09T07:09:59.162Z,91.70
2019-05-09T07:12:37.952Z,91.70
2019-05-09T07:15:17.630Z,91.70
2019-05-09T07:17:54.841Z,91.10
2019-05-09T07:20:32.123Z,91.10
2019-05-09T07:23:11.137Z,91.10
2019-05-09T07:26:07.540Z,91.00
2019-05-09T07:28:45.321Z,90.90
2019-05-09T07:31:32.887Z,90.50
2019-05-09T07:34:20.018Z,90.90
2019-05-09T07:36:58.268Z,90.90
2019-05-09T07:39:37.851Z,91.10
2019-05-09T07:42:15.081Z,91.00
2019-05-09T07:44:52.775Z,91.10
2019-05-09T07:47:31.069Z,90.30
2019-05-09T07:50:09.149Z,90.10
2019-05-09T07:52:47.739Z,90.10
2019-05-09T07:55:27.287Z,89.60
2019-05-09T07:58:04.403Z,89.10
2019-05-09T08:00:42.078Z,88.20
2019-05-09T08:03:19.430Z,88.10
2019-05-09T08:05:57.958Z,88.10
2019-05-09T08:08:38.220Z,88.10
2019-05-09T08:11:14.370Z,88.90
2019-05-09T08:13:51.613Z,87.60
2019-05-09T08:16:41.105Z,86.90
2019-05-09T08:19:18.330Z,87.30
2019-05-09T08:21:57.518Z,86.50
2019-05-09T08:24:34.832Z,86.40
2019-05-09T08:27:13.105Z,86.40
2019-05-09T08:29:50.556Z,85.90
2019-05-09T08:32:28.624Z,85.50
2019-05-09T08:35:08.245Z,85.00
2019-05-09T08:37:47.583Z,85.30
2019-05-09T08:40:24.303Z,83.90
2019-05-09T08:43:02.533Z,84.10
2019-05-09T08:45:40.180Z,84.80
2019-05-09T08:48:18.446Z,84.80
2019-05-09T08:50:58.328Z,85.20
2019-05-09T08:53:37.962Z,85.30
2019-05-09T08:56:14.724Z,84.60
2019-05-09T08:58:51.948Z,84.90
2019-05-09T09:01:48.129Z,85.60
2019-05-09T09:04:08.617Z,86.10
2019-05-09T09:06:48.194Z,85.10
2019-05-09T09:09:25.029Z,85.30
2019-05-09T09:12:02.303Z,84.40
2019-05-09T09:14:40.125Z,84.00
2019-05-09T09:17:18.762Z,84.00
2019-05-09T09:20:00.839Z,84.30
2019-05-09T09:22:44.283Z,83.50
2019-05-09T09:25:21.751Z,82.20
2019-05-09T09:27:59.155Z,81.40
2019-05-09T09:30:38.588Z,81.30
2019-05-09T09:33:17.509Z,81.10
2019-05-09T09:35:54.333Z,82.50
2019-05-09T09:38:31.683Z,82.50
2019-05-09T09:41:08.875Z,82.40
2019-05-09T09:43:47.606Z,82.30
2019-05-09T09:46:28.365Z,82.00
2019-05-09T09:49:07.983Z,80.40
2019-05-09T09:51:44.858Z,80.00
2019-05-09T09:54:22.406Z,77.00
2019-05-09T09:57:00.302Z,75.70
2019-05-09T10:00:00.730Z,75.30
2019-05-09T10:02:38.828Z,76.00
2019-05-09T10:05:18.358Z,73.80
2019-05-09T10:07:55.284Z,72.80
2019-05-09T10:10:35.048Z,73.30
2019-05-09T10:13:13.088Z,72.70
2019-05-09T10:16:01.544Z,73.20
2019-05-09T10:18:58.048Z,74.20
2019-05-09T10:21:43.358Z,73.10
2019-05-09T10:24:32.480Z,72.60
2019-05-09T10:27:11.202Z,71.50
2019-05-09T10:29:48.749Z,72.80
2019-05-09T10:32:28.637Z,73.00
2019-05-09T10:35:05.361Z,73.30
2019-05-09T10:37:44.232Z,76.00
2019-05-09T10:40:24.924Z,77.40
2019-05-09T10:43:34.495Z,77.30
2019-05-09T10:46:08.350Z,77.30
2019-05-09T10:48:55.038Z,76.80
2019-05-09T10:51:32.376Z,78.40
2019-05-09T10:54:09.559Z,78.00
2019-05-09T10:56:48.749Z,78.30
2019-05-09T10:59:26.597Z,77.80
2019-05-09T11:02:04.267Z,78.10
2019-05-09T11:04:44.205Z,77.80
2019-05-09T11:07:20.866Z,77.70
2019-05-09T11:09:58.949Z,77.60
2019-05-09T11:12:36.945Z,76.60
2019-05-09T11:15:14.611Z,76.80
2019-05-09T11:18:08.230Z,77.20
2019-05-09T11:20:45.902Z,77.80
2019-05-09T11:23:23.147Z,77.00
2019-05-09T11:26:00.903Z,76.90
2019-05-09T11:28:38.790Z,77.40
2019-05-09T11:31:18.351Z,77.60
2019-05-09T11:33:57.697Z,78.60
2019-05-09T11:36:34.081Z,78.60
2019-05-09T11:39:11.554Z,77.90
2019-05-09T11:41:49.769Z,78.20
2019-05-09T11:44:27.324Z,77.10
2019-05-09T11:47:05.037Z,78.30
2019-05-09T11:49:48.127Z,77.30
2019-05-09T11:52:24.930Z,78.60
2019-05-09T11:55:02.271Z,78.70
2019-05-09T11:57:40.097Z,78.80
2019-05-09T12:00:18.106Z,78.80
2019-05-09T12:02:57.967Z,79.10
2019-05-09T12:05:37.787Z,79.70
2019-05-09T12:08:14.865Z,80.50
2019-05-09T12:10:52.427Z,79.80
2019-05-09T12:13:29.710Z,79.30
2019-05-09T12:16:07.802Z,80.20
2019-05-09T12:18:45.069Z,80.20
2019-05-09T12:21:22.818Z,80.40
2019-05-09T12:24:00.477Z,80.20
2019-05-09T12:26:39.092Z,80.00
2019-05-09T12:29:19.681Z,80.30
2019-05-09T12:31:56.263Z,80.20
2019-05-09T12:34:34.131Z,80.30
2019-05-09T12:37:11.655Z,80.20
2019-05-09T12:39:50.781Z,80.50
2019-05-09T12:42:29.218Z,80.30
2019-05-09T12:45:08.437Z,81.20
2019-05-09T12:47:46.939Z,81.50
2019-05-09T12:50:24.225Z,81.10
2019-05-09T12:53:01.687Z,81.20
2019-05-09T12:55:39.378Z,82.00
2019-05-09T12:58:29.377Z,81.10
2019-05-09T13:01:07.721Z,81.40
2019-05-09T13:03:44.990Z,80.90
2019-05-09T13:06:23.009Z,81.20
2019-05-09T13:09:00.332Z,81.80
2019-05-09T13:11:39.085Z,82.00
2019-05-09T13:14:19.204Z,81.60
2019-05-09T13:17:05.065Z,82.30
2019-05-09T13:19:53.986Z,83.20
2019-05-09T13:22:31.757Z,83.90
2019-05-09T13:25:09.723Z,83.70
2019-05-09T13:27:59.490Z,83.60
2019-05-09T13:30:38.039Z,84.60
2019-05-09T13:33:18.784Z,84.70
2019-05-09T13:35:58.155Z,85.70
2019-05-09T13:38:34.267Z,86.20
2019-05-09T13:41:11.613Z,86.40
2019-05-09T13:43:57.724Z,87.20
2019-05-09T13:46:28.520Z,87.30
2019-05-09T13:49:12.546Z,88.20
2019-05-09T13:51:51.126Z,88.80
2019-05-09T13:54:24.148Z,88.90
2019-05-09T13:57:01.731Z,89.80
2019-05-09T13:59:38.942Z,90.20
2019-05-09T14:02:18.754Z,90.70
2019-05-09T14:04:58.345Z,91.00
2019-05-09T14:07:37.724Z,91.70
2019-05-09T14:10:17.588Z,91.80
2019-05-09T14:13:05.757Z,92.20
2019-05-09T14:15:33.867Z,92.60
2019-05-09T14:18:11.157Z,92.40
2019-05-09T14:20:48.718Z,92.80
2019-05-09T14:23:35.095Z,93.40
2019-05-09T14:26:05.198Z,93.60
2019-05-09T14:28:42.811Z,93.50
2019-05-09T14:31:20.272Z,93.80
2019-05-09T14:33:58.537Z,93.80
2019-05-09T14:36:39.148Z,93.90
2019-05-09T14:39:15.347Z,93.90
2019-05-09T14:41:52.605Z,94.30
2019-05-09T14:44:30.844Z,94.80
2019-05-09T14:47:08.225Z,95.20
2019-05-09T14:49:50.016Z,95.70
2019-05-09T14:52:28.235Z,95.80
2019-05-09T14:55:04.757Z,96.30
2019-05-09T14:57:42.167Z,96.70
2019-05-09T15:00:19.941Z,97.20
2019-05-09T15:02:58.216Z,97.30
2019-05-09T15:05:37.852Z,98.00
2019-05-09T15:08:17.825Z,98.40
2019-05-09T15:10:58.061Z,98.70
2019-05-09T15:13:34.342Z,99.10
2019-05-09T15:16:12.184Z,99.40
2019-05-09T15:18:50.566Z,99.70
2019-05-09T15:21:30.210Z,99.90
2019-05-09T15:24:09.326Z,99.90
2019-05-09T15:26:47.922Z,99.90
2019-05-09T15:29:25.770Z,99.90
2019-05-09T15:32:06.415Z,99.90
2019-05-09T15:34:42.615Z,99.90
2019-05-09T15:37:20.128Z,99.90
2019-05-09T15:39:57.425Z,99.90
2019-05-09T15:42:34.867Z,99.90
2019-05-09T15:45:13.123Z,99.90
2019-05-09T15:47:50.746Z,99.90
2019-05-09T15:50:28.492Z,99.90
2019-05-09T15:53:08.359Z,99.90
2019-05-09T15:55:45.327Z,99.90
2019-05-09T15:58:23.090Z,99.90
2019-05-09T16:01:01.010Z,99.90
2019-05-09T16:03:38.491Z,99.90
2019-05-09T16:06:19.326Z,99.90
2019-05-09T16:08:55.087Z,99.90
2019-05-09T16:11:32.380Z,99.90
2019-05-09T16:14:09.871Z,99.90
2019-05-09T16:16:47.958Z,99.90
2019-05-09T16:19:26.449Z,99.90
2019-05-09T16:22:04.240Z,99.90
2019-05-09T16:24:41.665Z,99.90
2019-05-09T16:27:20.185Z,99.90
2019-05-09T16:29:58.077Z,99.90
2019-05-09T16:32:37.960Z,99.90
2019-05-09T16:35:18.218Z,99.90
2019-05-09T16:38:02.754Z,99.90
2019-05-09T16:40:35.532Z,99.90
2019-05-09T16:43:14.457Z,99.90
2019-05-09T16:45:51.943Z,99.90
2019-05-09T16:48:29.334Z,99.90
2019-05-09T16:51:07.920Z,99.90
2019-05-09T16:53:49.460Z,99.90
2019-05-09T16:56:25.460Z,99.90
2019-05-09T16:59:02.693Z,99.90
2019-05-09T17:01:46.642Z,99.90
2019-05-09T17:04:22.670Z,99.90
2019-05-09T17:07:00.347Z,99.90
2019-05-09T17:09:49.605Z,99.90
2019-05-09T17:12:26.921Z,99.90
2019-05-09T17:15:04.717Z,99.90
2019-05-09T17:17:43.740Z,99.90
2019-05-09T17:20:24.479Z,99.90
2019-05-09T17:23:14.790Z,99.90
2019-05-09T17:25:49.849Z,99.90
2019-05-09T17:28:28.425Z,99.90
2019-05-09T17:31:07.951Z,99.90
2019-05-09T17:33:45.161Z,99.90
2019-05-09T17:36:23.647Z,99.90
2019-05-09T17:41:32.695Z,99.90
2019-05-09T17:44:10.597Z,99.90
2019-05-09T17:46:48.267Z,99.90
2019-05-09T17:49:28.046Z,99.90
2019-05-09T17:52:07.610Z,99.90
2019-05-09T17:54:45.827Z,99.90
2019-05-09T17:57:23.326Z,99.90
2019-05-09T18:00:01.179Z,99.90
2019-05-09T18:02:42.674Z,99.90
2019-05-09T18:05:42.997Z,99.90
2019-05-09T18:08:48.447Z,99.90
2019-05-09T18:11:31.658Z,99.90
2019-05-09T18:14:09.073Z,99.90
2019-05-09T18:16:47.781Z,99.90
2019-05-09T18:19:25.475Z,99.90
2019-05-09T18:22:03.180Z,99.90
2019-05-09T18:24:41.317Z,99.90
2019-05-09T18:27:18.741Z,99.90
2019-05-09T18:29:58.333Z,99.90
2019-05-09T18:32:42.075Z,99.90
2019-05-09T18:35:21.631Z,99.90
2019-05-09T18:38:00.598Z,99.90
2019-05-09T18:40:38.299Z,99.90
2019-05-09T18:43:17.795Z,99.90
2019-05-09T18:45:57.799Z,99.90
2019-05-09T18:48:35.074Z,99.90
2019-05-09T18:51:12.875Z,99.90
2019-05-09T18:53:50.605Z,99.90
2019-05-09T18:56:28.768Z,99.90
2019-05-09T18:59:07.907Z,99.90
2019-05-09T19:01:45.306Z,99.90
2019-05-09T19:04:22.704Z,99.90
2019-05-09T19:07:00.372Z,99.90
2019-05-09T19:09:40.136Z,99.90
2019-05-09T19:12:17.481Z,99.90
2019-05-09T19:14:55.059Z,99.90
2019-05-09T19:17:51.059Z,99.90
2019-05-09T19:20:48.630Z,99.90
2019-05-09T19:23:26.477Z,99.90
2019-05-09T19:26:06.308Z,99.90
2019-05-09T19:28:44.196Z,99.90
2019-05-09T19:31:22.110Z,99.90
2019-05-09T19:34:00.344Z,99.90
2019-05-09T19:36:38.185Z,99.90
2019-05-09T19:39:15.781Z,99.90
2019-05-09T19:41:56.807Z,99.90
2019-05-09T19:44:40.393Z,99.90
2019-05-09T19:47:17.868Z,99.90
2019-05-09T19:49:55.187Z,99.90
2019-05-09T19:52:38.283Z,99.90
2019-05-09T19:55:13.707Z,99.90
2019-05-09T19:57:51.102Z,99.90
2019-05-09T20:00:34.832Z,99.90
2019-05-09T20:03:12.053Z,99.90
2019-05-09T20:05:49.975Z,99.90
2019-05-09T20:08:27.852Z,99.90
2019-05-09T20:11:15.467Z,99.90
2019-05-09T20:14:10.901Z,99.90
2019-05-09T20:16:51.298Z,99.90
2019-05-09T20:19:29.151Z,99.90
2019-05-09T20:22:07.271Z,99.90
2019-05-09T20:24:44.670Z,99.90
2019-05-09T20:27:22.234Z,99.90
2019-05-09T20:30:00.704Z,99.90
2019-05-09T20:32:38.564Z,99.90
2019-05-09T20:35:15.829Z,99.90
2019-05-09T20:37:53.338Z,99.90
2019-05-09T20:40:30.911Z,99.90
2019-05-09T20:43:08.699Z,99.90
2019-05-09T20:45:46.635Z,99.90
2019-05-09T20:48:26.691Z,99.90
2019-05-09T20:51:04.327Z,99.90
2019-05-09T20:53:51.535Z,99.90
2019-05-09T20:56:29.848Z,99.90
2019-05-09T20:59:07.849Z,99.90
2019-05-09T21:01:46.120Z,99.90
2019-05-09T21:04:35.625Z,99.90
2019-05-09T21:07:19.101Z,99.90
2019-05-09T21:09:57.126Z,99.90
2019-05-09T21:12:35.027Z,99.90
2019-05-09T21:15:12.684Z,99.90
2019-05-09T21:17:50.353Z,99.90
2019-05-09T21:20:27.893Z,99.90
2019-05-09T21:23:05.258Z,99.90
2019-05-09T21:25:43.100Z,99.90
2019-05-09T21:28:21.001Z,99.90
2019-05-09T21:30:58.506Z,99.90
2019-05-09T21:33:36.581Z,99.90
2019-05-09T21:36:13.957Z,99.90
2019-05-09T21:38:51.191Z,99.90
2019-05-09T21:41:28.936Z,99.90
2019-05-09T21:44:06.675Z,99.90
2019-05-09T21:46:45.314Z,99.90
2019-05-09T21:49:23.263Z,99.90
2019-05-09T21:52:00.606Z,99.90
2019-05-09T21:54:38.469Z,99.90
2019-05-09T21:57:15.879Z,99.90
2019-05-09T21:59:53.886Z,99.90
2019-05-09T22:02:31.509Z,99.90
2019-05-09T22:05:09.460Z,99.90
2019-05-09T22:07:46.908Z,99.90
2019-05-09T22:10:24.622Z,99.90
2019-05-09T22:13:02.049Z,99.90
2019-05-09T22:15:39.494Z,99.90
2019-05-09T22:18:16.852Z,99.90
2019-05-09T22:20:54.486Z,99.90
2019-05-09T22:23:32.067Z,99.90
2019-05-09T22:26:21.904Z,99.90
2019-05-09T22:28:59.958Z,99.90
2019-05-09T22:31:49.287Z,99.90
2019-05-09T22:34:27.066Z,99.90
2019-05-09T22:37:09.611Z,99.90
2019-05-09T22:39:47.574Z,99.90
2019-05-09T22:42:24.984Z,99.90
2019-05-09T22:45:02.755Z,99.90
2019-05-09T22:47:40.239Z,99.90
2019-05-09T22:50:18.581Z,99.90
2019-05-09T22:53:07.745Z,99.90
2019-05-09T22:55:45.226Z,99.90
2019-05-09T22:58:22.468Z,99.90
2019-05-09T23:00:59.754Z,99.90
2019-05-09T23:03:37.262Z,99.90
2019-05-09T23:06:14.643Z,99.90
2019-05-09T23:08:53.103Z,99.90
2019-05-09T23:11:31.223Z,99.90
2019-05-09T23:14:08.917Z,99.90
2019-05-09T23:16:50.084Z,99.90
2019-05-09T23:19:25.191Z,99.90
2019-05-09T23:22:03.602Z,99.90
2019-05-09T23:24:44.253Z,99.90
2019-05-09T23:27:20.566Z,99.90
2019-05-09T23:29:58.073Z,99.90
2019-05-09T23:32:39.458Z,99.90
2019-05-09T23:35:15.572Z,99.90
2019-05-09T23:37:53.591Z,99.90
2019-05-09T23:40:30.975Z,99.90
2019-05-09T23:43:08.421Z,99.90
2019-05-09T23:45:46.587Z,99.90
2019-05-09T23:48:24.147Z,99.90
2019-05-09T23:51:01.964Z,99.90
2019-05-09T23:53:40.209Z,99.90
2019-05-09T23:56:36.020Z,99.90
2019-05-09T23:59:31.275Z,99.90
